createdAt,value
2022-10-01T00:00:16.081Z,8.76
2022-10-01T00:02:44.073Z,8.75
2022-10-01T00:05:13.674Z,8.71
2022-10-01T00:07:47.629Z,8.68
2022-10-01T00:10:16.610Z,8.74
2022-10-01T00:12:51.381Z,8.69
2022-10-01T00:15:19.725Z,8.61
2022-10-01T00:17:47.471Z,8.53
2022-10-01T00:20:20.722Z,8.62
2022-10-01T00:22:48.508Z,8.62
2022-10-01T00:25:16.538Z,8.56
2022-10-01T00:27:48.741Z,8.52
2022-10-01T00:30:16.742Z,8.46
2022-10-01T00:32:44.686Z,8.40
2022-10-01T00:35:17.993Z,8.42
2022-10-01T00:37:45.792Z,8.43
2022-10-01T00:40:13.587Z,8.46
2022-10-01T00:42:45.475Z,8.47
2022-10-01T00:45:15.428Z,8.43
2022-10-01T00:47:51.647Z,8.44
2022-10-01T00:50:26.941Z,8.39
2022-10-01T00:53:01.965Z,8.40
2022-10-01T00:55:34.170Z,8.35
2022-10-01T00:58:07.059Z,8.44
2022-10-01T01:00:36.646Z,8.47
2022-10-01T01:03:07.358Z,8.49
2022-10-01T01:05:39.227Z,8.52
2022-10-01T01:08:09.543Z,8.52
2022-10-01T01:10:52.087Z,8.48
2022-10-01T01:13:27.328Z,8.43
2022-10-01T01:16:04.256Z,8.50
2022-10-01T01:18:41.519Z,8.47
2022-10-01T01:21:29.134Z,8.49
2022-10-01T01:24:26.424Z,8.40
2022-10-01T01:27:05.286Z,8.37
2022-10-01T01:29:41.604Z,8.41
2022-10-01T01:32:17.080Z,8.41
2022-10-01T01:34:51.271Z,8.42
2022-10-01T01:37:22.650Z,8.39
2022-10-01T01:39:56.395Z,8.37
2022-10-01T01:42:31.194Z,8.36
2022-10-01T01:45:03.518Z,8.39
2022-10-01T01:47:36.518Z,8.36
2022-10-01T01:50:08.664Z,8.44
2022-10-01T01:52:36.938Z,8.40
2022-10-01T01:55:09.396Z,8.42
2022-10-01T01:57:41.998Z,8.45
2022-10-01T02:00:14.915Z,8.38
2022-10-01T02:02:50.284Z,8.40
2022-10-01T02:05:25.573Z,8.30
2022-10-01T02:08:27.791Z,8.23
2022-10-01T02:11:38.926Z,8.27
2022-10-01T02:14:23.514Z,8.20
2022-10-01T02:17:01.498Z,8.09
2022-10-01T02:19:36.774Z,8.13
2022-10-01T02:22:10.233Z,8.16
2022-10-01T02:24:44.475Z,8.13
2022-10-01T02:27:18.570Z,8.11
2022-10-01T02:29:49.920Z,8.05
2022-10-01T02:32:22.345Z,8.09
2022-10-01T02:34:55.791Z,8.25
2022-10-01T02:37:29.580Z,8.19
2022-10-01T02:39:59.284Z,8.24
2022-10-01T02:42:30.759Z,8.22
2022-10-01T02:45:02.809Z,8.24
2022-10-01T02:47:39.646Z,8.21
2022-10-01T02:50:10.567Z,8.22
2022-10-01T02:52:45.774Z,8.28
2022-10-01T02:55:19.863Z,8.30
2022-10-01T02:57:47.043Z,8.35
2022-10-01T03:00:18.615Z,8.49
2022-10-01T03:02:51.082Z,8.56
2022-10-01T03:05:20.534Z,8.70
2022-10-01T03:07:51.202Z,8.81
2022-10-01T03:10:19.867Z,8.76
2022-10-01T03:12:49.677Z,8.69
2022-10-01T03:15:21.004Z,8.63
2022-10-01T03:17:53.743Z,8.62
2022-10-01T03:20:22.347Z,8.58
2022-10-01T03:22:50.557Z,8.44
2022-10-01T03:25:22.535Z,8.49
2022-10-01T03:27:50.379Z,8.50
2022-10-01T03:30:18.250Z,8.45
2022-10-01T03:32:50.099Z,8.43
2022-10-01T03:35:20.393Z,8.39
2022-10-01T03:37:48.124Z,8.32
2022-10-01T03:40:20.382Z,8.22
2022-10-01T03:42:48.209Z,7.99
2022-10-01T03:45:16.227Z,8.10
2022-10-01T03:47:55.859Z,8.22
2022-10-01T03:50:25.130Z,8.15
2022-10-01T03:52:55.041Z,8.13
2022-10-01T03:55:24.900Z,8.13
2022-10-01T03:57:52.638Z,8.24
2022-10-01T04:00:22.642Z,8.20
2022-10-01T04:02:52.393Z,8.07
2022-10-01T04:05:20.180Z,8.08
2022-10-01T04:07:51.240Z,8.00
2022-10-01T04:10:21.269Z,7.99
2022-10-01T04:12:49.201Z,7.93
2022-10-01T04:15:19.323Z,7.94
2022-10-01T04:17:49.053Z,7.85
2022-10-01T04:20:16.913Z,7.80
2022-10-01T04:22:47.256Z,7.72
2022-10-01T04:25:18.691Z,7.64
2022-10-01T04:27:58.702Z,7.48
2022-10-01T04:30:30.677Z,7.45
2022-10-01T04:32:58.947Z,7.36
2022-10-01T04:35:27.686Z,7.35
2022-10-01T04:38:03.824Z,7.40
2022-10-01T04:40:38.128Z,7.42
2022-10-01T04:43:10.319Z,7.39
2022-10-01T04:45:40.694Z,7.33
2022-10-01T04:48:10.398Z,7.30
2022-10-01T04:50:40.271Z,7.20
2022-10-01T04:53:10.155Z,7.21
2022-10-01T04:55:39.367Z,7.25
2022-10-01T04:58:09.146Z,7.21
2022-10-01T05:00:39.174Z,7.28
2022-10-01T05:03:07.007Z,7.12
2022-10-01T05:05:37.355Z,7.04
2022-10-01T05:08:05.407Z,6.89
2022-10-01T05:10:33.203Z,7.06
2022-10-01T05:13:04.324Z,6.91
2022-10-01T05:15:35.778Z,6.99
2022-10-01T05:18:03.717Z,7.03
2022-10-01T05:20:35.419Z,6.98
2022-10-01T05:23:03.366Z,7.28
2022-10-01T05:25:31.165Z,7.44
2022-10-01T05:28:06.346Z,7.49
2022-10-01T05:30:36.335Z,7.58
2022-10-01T05:33:05.420Z,7.63
2022-10-01T05:35:35.217Z,7.72
2022-10-01T05:38:05.125Z,7.73
2022-10-01T05:40:33.213Z,7.72
2022-10-01T05:43:05.059Z,7.73
2022-10-01T05:45:33.391Z,7.57
2022-10-01T05:48:02.423Z,7.59
2022-10-01T05:50:36.467Z,7.57
2022-10-01T05:53:04.466Z,7.52
2022-10-01T05:55:33.405Z,7.45
2022-10-01T05:58:08.287Z,7.47
2022-10-01T06:00:36.331Z,7.59
2022-10-01T06:03:07.118Z,7.77
2022-10-01T06:05:37.982Z,7.87
2022-10-01T06:08:06.821Z,8.01
2022-10-01T06:10:36.801Z,8.03
2022-10-01T06:13:10.589Z,8.15
2022-10-01T06:15:39.969Z,8.25
2022-10-01T06:18:11.158Z,8.28
2022-10-01T06:20:40.907Z,8.22
2022-10-01T06:23:12.568Z,8.11
2022-10-01T06:25:45.500Z,8.09
2022-10-01T06:28:15.600Z,8.08
2022-10-01T06:30:43.771Z,8.03
2022-10-01T06:33:14.502Z,8.13
2022-10-01T06:35:46.928Z,8.24
2022-10-01T06:38:17.914Z,8.25
2022-10-01T06:40:52.087Z,8.36
2022-10-01T06:43:23.473Z,8.44
2022-10-01T06:45:53.584Z,8.50
2022-10-01T06:48:22.227Z,8.58
2022-10-01T06:50:55.029Z,8.74
2022-10-01T06:53:22.821Z,8.97
2022-10-01T06:55:51.139Z,9.14
2022-10-01T06:58:25.314Z,9.21
2022-10-01T07:00:58.978Z,9.32
2022-10-01T07:03:31.554Z,9.40
2022-10-01T07:06:07.942Z,9.38
2022-10-01T07:08:35.921Z,9.33
2022-10-01T07:11:05.041Z,9.74
2022-10-01T07:13:34.397Z,10.09
2022-10-01T07:16:06.534Z,10.39
2022-10-01T07:18:34.535Z,10.56
2022-10-01T07:21:22.076Z,10.84
2022-10-01T07:23:51.978Z,10.98
2022-10-01T07:26:19.789Z,11.21
2022-10-01T07:28:49.131Z,11.38
2022-10-01T07:31:19.165Z,11.61
2022-10-01T07:33:47.456Z,11.69
2022-10-01T07:36:17.554Z,11.70
2022-10-01T07:38:45.963Z,11.83
2022-10-01T07:41:14.889Z,12.00
2022-10-01T07:43:43.917Z,12.19
2022-10-01T07:46:13.178Z,12.44
2022-10-01T07:48:41.277Z,12.58
2022-10-01T07:51:13.378Z,12.66
2022-10-01T07:53:41.141Z,12.71
2022-10-01T07:56:08.938Z,12.71
2022-10-01T07:58:57.932Z,12.55
2022-10-01T08:01:27.153Z,12.32
2022-10-01T08:03:57.212Z,12.18
2022-10-01T08:06:25.827Z,12.27
2022-10-01T08:09:02.563Z,12.53
2022-10-01T08:11:31.798Z,12.75
2022-10-01T08:14:18.151Z,12.88
2022-10-01T08:16:47.670Z,12.90
2022-10-01T08:19:18.632Z,13.13
2022-10-01T08:21:46.667Z,12.92
2022-10-01T08:24:16.281Z,12.81
2022-10-01T08:26:44.675Z,12.90
2022-10-01T08:29:16.929Z,13.10
2022-10-01T08:31:52.967Z,13.44
2022-10-01T08:34:20.876Z,13.65
2022-10-01T08:36:52.152Z,13.87
2022-10-01T08:39:20.632Z,13.90
2022-10-01T08:41:59.624Z,13.98
2022-10-01T08:44:34.264Z,13.99
2022-10-01T08:47:09.232Z,14.19
2022-10-01T08:49:43.345Z,14.14
2022-10-01T08:52:21.098Z,14.11
2022-10-01T08:54:54.770Z,14.19
2022-10-01T08:57:29.791Z,14.13
2022-10-01T09:00:02.903Z,14.35
2022-10-01T09:02:35.377Z,14.53
2022-10-01T09:05:08.844Z,14.50
2022-10-01T09:07:57.726Z,14.15
2022-10-01T09:10:40.463Z,13.83
2022-10-01T09:13:27.242Z,13.57
2022-10-01T09:16:05.840Z,13.91
2022-10-01T09:18:47.566Z,14.32
2022-10-01T09:21:23.068Z,14.76
2022-10-01T09:24:03.272Z,14.85
2022-10-01T09:26:34.244Z,15.01
2022-10-01T09:29:06.827Z,14.94
2022-10-01T09:31:42.691Z,14.86
2022-10-01T09:34:15.818Z,14.70
2022-10-01T09:36:55.222Z,14.70
2022-10-01T09:39:30.348Z,14.76
2022-10-01T09:41:59.826Z,14.77
2022-10-01T09:44:31.025Z,15.01
2022-10-01T09:46:59.153Z,14.95
2022-10-01T09:49:34.170Z,15.22
2022-10-01T09:52:07.526Z,15.30
2022-10-01T09:54:43.255Z,15.35
2022-10-01T09:57:15.900Z,15.34
2022-10-01T09:59:54.290Z,15.37
2022-10-01T10:02:29.217Z,15.20
2022-10-01T10:05:08.408Z,14.97
2022-10-01T10:07:39.733Z,14.58
2022-10-01T10:10:25.780Z,14.62
2022-10-01T10:12:57.994Z,14.41
2022-10-01T10:15:33.835Z,14.26
2022-10-01T10:18:08.963Z,13.85
2022-10-01T10:20:41.580Z,13.84
2022-10-01T10:23:10.718Z,13.72
2022-10-01T10:25:41.202Z,13.40
2022-10-01T10:28:21.861Z,13.23
2022-10-01T10:30:54.069Z,13.01
2022-10-01T10:33:26.201Z,12.80
2022-10-01T10:36:09.230Z,12.63
2022-10-01T10:38:37.269Z,12.24
2022-10-01T10:41:06.214Z,12.05
2022-10-01T10:43:38.259Z,12.28
2022-10-01T10:46:08.435Z,12.49
2022-10-01T10:48:39.740Z,13.05
2022-10-01T10:51:10.447Z,13.50
2022-10-01T10:53:47.789Z,13.75
2022-10-01T10:56:22.804Z,13.41
2022-10-01T10:58:53.796Z,13.55
2022-10-01T11:01:29.575Z,13.64
2022-10-01T11:04:02.096Z,13.70
2022-10-01T11:06:31.612Z,14.00
2022-10-01T11:09:02.374Z,13.91
2022-10-01T11:11:47.356Z,14.14
2022-10-01T11:14:34.144Z,14.39
2022-10-01T11:17:18.781Z,14.42
2022-10-01T11:20:03.292Z,14.30
2022-10-01T11:22:50.768Z,14.62
2022-10-01T11:25:34.294Z,14.79
2022-10-01T11:28:16.172Z,14.60
2022-10-01T11:30:57.687Z,14.62
2022-10-01T11:33:36.277Z,14.50
2022-10-01T11:36:15.890Z,14.04
2022-10-01T11:38:53.393Z,13.96
2022-10-01T11:41:29.992Z,13.77
2022-10-01T11:44:05.370Z,13.68
2022-10-01T11:46:58.585Z,13.48
2022-10-01T11:49:41.949Z,13.49
2022-10-01T11:52:19.170Z,13.54
2022-10-01T11:54:58.039Z,13.64
2022-10-01T11:57:45.802Z,13.64
2022-10-01T12:00:16.100Z,13.65
2022-10-01T12:02:52.305Z,13.86
2022-10-01T12:05:25.964Z,14.26
2022-10-01T12:08:02.471Z,14.22
2022-10-01T12:10:47.538Z,13.83
2022-10-01T12:13:23.914Z,13.65
2022-10-01T12:15:59.497Z,13.72
2022-10-01T12:18:33.437Z,14.20
2022-10-01T12:21:06.867Z,14.64
2022-10-01T12:23:51.640Z,14.87
2022-10-01T12:26:34.800Z,14.85
2022-10-01T12:29:10.549Z,14.89
2022-10-01T12:31:45.911Z,14.75
2022-10-01T12:34:22.452Z,14.71
2022-10-01T12:37:06.337Z,14.81
2022-10-01T12:39:46.548Z,14.91
2022-10-01T12:42:36.714Z,14.66
2022-10-01T12:45:20.394Z,14.49
2022-10-01T12:47:58.531Z,14.07
2022-10-01T12:50:37.521Z,14.04
2022-10-01T12:53:19.596Z,14.41
2022-10-01T12:56:01.406Z,14.57
2022-10-01T12:58:49.451Z,14.55
2022-10-01T13:01:27.728Z,14.57
2022-10-01T13:04:29.078Z,14.43
2022-10-01T13:07:31.722Z,14.50
2022-10-01T13:10:14.030Z,14.73
2022-10-01T13:12:57.799Z,14.65
2022-10-01T13:15:31.671Z,14.73
2022-10-01T13:18:09.391Z,14.59
2022-10-01T13:20:43.438Z,14.77
2022-10-01T13:23:19.140Z,14.72
2022-10-01T13:25:56.395Z,14.90
2022-10-01T13:28:30.250Z,14.88
2022-10-01T13:31:04.058Z,14.92
2022-10-01T13:33:34.198Z,14.93
2022-10-01T13:36:03.552Z,14.76
2022-10-01T13:38:44.476Z,15.01
2022-10-01T13:41:20.294Z,14.92
2022-10-01T13:43:58.381Z,14.85
2022-10-01T13:46:31.294Z,14.83
2022-10-01T13:49:09.007Z,14.89
2022-10-01T13:51:38.931Z,14.90
2022-10-01T13:54:24.090Z,14.94
2022-10-01T13:56:52.006Z,14.89
2022-10-01T13:59:31.711Z,14.80
2022-10-01T14:02:01.132Z,14.57
2022-10-01T14:04:37.939Z,14.25
2022-10-01T14:07:15.636Z,14.02
2022-10-01T14:09:46.912Z,13.89
2022-10-01T14:12:45.054Z,13.65
2022-10-01T14:15:37.459Z,13.56
2022-10-01T14:18:15.739Z,13.58
2022-10-01T14:20:56.056Z,13.61
2022-10-01T14:23:35.156Z,13.52
2022-10-01T14:26:15.301Z,13.46
2022-10-01T14:28:59.674Z,13.40
2022-10-01T14:31:38.401Z,13.36
2022-10-01T14:34:35.901Z,13.27
2022-10-01T14:37:12.649Z,13.16
2022-10-01T14:39:44.227Z,13.12
2022-10-01T14:42:18.827Z,13.12
2022-10-01T14:44:48.756Z,13.06
2022-10-01T14:47:23.059Z,13.02
2022-10-01T14:49:55.094Z,12.94
2022-10-01T14:52:29.514Z,12.95
2022-10-01T14:55:02.874Z,12.85
2022-10-01T14:57:36.973Z,12.93
2022-10-01T15:00:10.570Z,12.87
2022-10-01T15:02:47.916Z,12.82
2022-10-01T15:05:27.249Z,12.76
2022-10-01T15:07:56.547Z,12.65
2022-10-01T15:10:28.988Z,12.65
2022-10-01T15:12:57.088Z,12.61
2022-10-01T15:15:29.963Z,12.53
2022-10-01T15:18:00.280Z,12.54
2022-10-01T15:20:28.681Z,12.54
2022-10-01T15:23:01.396Z,12.50
2022-10-01T15:25:34.860Z,12.52
2022-10-01T15:28:02.672Z,12.50
2022-10-01T15:30:30.836Z,12.35
2022-10-01T15:32:59.075Z,12.32
2022-10-01T15:35:27.259Z,12.27
2022-10-01T15:38:00.632Z,12.20
2022-10-01T15:40:30.916Z,12.14
2022-10-01T15:43:37.186Z,12.14
2022-10-01T15:46:19.803Z,12.04
2022-10-01T15:48:48.386Z,12.02
2022-10-01T15:51:24.247Z,12.01
2022-10-01T15:53:56.315Z,11.92
2022-10-01T15:56:25.762Z,11.87
2022-10-01T15:58:56.488Z,11.74
2022-10-01T16:01:31.570Z,11.66
2022-10-01T16:04:05.860Z,11.56
2022-10-01T16:06:40.545Z,11.58
2022-10-01T16:09:15.718Z,11.45
2022-10-01T16:11:57.207Z,11.34
2022-10-01T16:14:32.475Z,11.29
2022-10-01T16:17:33.718Z,11.29
2022-10-01T16:20:03.772Z,11.26
2022-10-01T16:22:33.742Z,11.23
2022-10-01T16:25:07.304Z,11.17
2022-10-01T16:27:45.065Z,11.01
2022-10-01T16:30:21.644Z,10.79
2022-10-01T16:32:49.921Z,10.63
2022-10-01T16:35:24.177Z,10.51
2022-10-01T16:37:54.110Z,10.45
2022-10-01T16:40:28.236Z,10.45
2022-10-01T16:42:56.530Z,10.60
2022-10-01T16:45:26.733Z,10.61
2022-10-01T16:47:56.880Z,10.64
2022-10-01T16:50:25.234Z,10.62
2022-10-01T16:52:56.339Z,10.45
2022-10-01T16:55:31.803Z,10.35
2022-10-01T16:58:02.992Z,10.43
2022-10-01T17:00:31.157Z,10.24
2022-10-01T17:03:01.525Z,10.30
2022-10-01T17:05:33.963Z,10.28
2022-10-01T17:08:05.590Z,10.18
2022-10-01T17:10:40.493Z,10.31
2022-10-01T17:13:20.627Z,10.24
2022-10-01T17:15:51.631Z,10.18
2022-10-01T17:18:20.074Z,10.09
2022-10-01T17:20:48.228Z,10.14
2022-10-01T17:23:20.576Z,10.03
2022-10-01T17:25:51.431Z,10.05
2022-10-01T17:28:21.410Z,10.02
2022-10-01T17:30:50.148Z,10.01
2022-10-01T17:33:20.348Z,10.05
2022-10-01T17:35:51.970Z,9.96
2022-10-01T17:38:21.087Z,9.96
2022-10-01T17:40:55.440Z,9.99
2022-10-01T17:43:27.609Z,9.84
2022-10-01T17:45:59.483Z,9.82
2022-10-01T17:48:30.481Z,9.87
2022-10-01T17:51:03.614Z,9.91
2022-10-01T17:53:36.094Z,9.89
2022-10-01T17:56:09.046Z,9.77
2022-10-01T17:58:44.303Z,9.80
2022-10-01T18:01:16.267Z,9.84
2022-10-01T18:03:44.297Z,9.93
2022-10-01T18:06:15.370Z,9.86
2022-10-01T18:08:58.703Z,9.86
2022-10-01T18:11:28.488Z,9.87
2022-10-01T18:13:57.898Z,9.87
2022-10-01T18:16:26.801Z,9.88
2022-10-01T18:21:46.617Z,9.94
2022-10-01T18:24:17.606Z,9.93
2022-10-01T18:26:46.384Z,9.91
2022-10-01T18:29:21.289Z,9.83
2022-10-01T18:31:53.726Z,9.81
2022-10-01T18:34:29.713Z,9.85
2022-10-01T18:37:01.900Z,9.83
2022-10-01T18:39:34.665Z,9.77
2022-10-01T18:42:11.960Z,9.81
2022-10-01T18:44:43.675Z,9.83
2022-10-01T18:47:24.125Z,9.87
2022-10-01T18:50:20.955Z,9.94
2022-10-01T18:52:59.285Z,9.98
2022-10-01T18:55:45.422Z,10.03
2022-10-01T18:58:35.069Z,10.01
2022-10-01T19:01:22.165Z,10.17
2022-10-01T19:04:23.847Z,10.27
2022-10-01T19:07:10.589Z,10.19
2022-10-01T19:09:51.992Z,10.07
2022-10-01T19:12:39.427Z,10.08
2022-10-01T19:15:18.353Z,10.08
2022-10-01T19:17:58.380Z,10.11
2022-10-01T19:20:45.222Z,10.14
2022-10-01T19:23:43.452Z,10.20
2022-10-01T19:26:19.845Z,10.47
2022-10-01T19:29:06.446Z,10.46
2022-10-01T19:31:45.029Z,10.49
2022-10-01T19:34:21.728Z,10.60
2022-10-01T19:36:56.140Z,10.46
2022-10-01T19:39:29.550Z,10.36
2022-10-01T19:42:02.781Z,10.44
2022-10-01T19:44:38.988Z,10.29
2022-10-01T19:47:25.675Z,10.25
2022-10-01T19:50:00.651Z,10.00
2022-10-01T19:52:42.628Z,10.14
2022-10-01T19:55:18.569Z,10.14
2022-10-01T19:57:48.972Z,10.05
2022-10-01T20:00:22.195Z,9.93
2022-10-01T20:03:05.192Z,9.80
2022-10-01T20:05:43.952Z,9.77
2022-10-01T20:08:17.937Z,9.73
2022-10-01T20:10:53.101Z,9.66
2022-10-01T20:13:33.119Z,9.79
2022-10-01T20:16:14.283Z,9.57
2022-10-01T20:18:52.609Z,9.40
2022-10-01T20:21:38.893Z,9.36
2022-10-01T20:24:20.799Z,9.39
2022-10-01T20:26:54.945Z,9.31
2022-10-01T20:29:38.132Z,9.17
2022-10-01T20:32:19.383Z,9.11
2022-10-01T20:35:02.689Z,9.23
2022-10-01T20:37:45.430Z,9.29
2022-10-01T20:40:24.923Z,9.03
2022-10-01T20:42:57.240Z,9.17
2022-10-01T20:45:29.651Z,9.08
2022-10-01T20:48:02.929Z,8.96
2022-10-01T20:50:35.783Z,9.28
2022-10-01T20:53:17.572Z,9.31
2022-10-01T20:55:50.089Z,9.23
2022-10-01T20:58:23.077Z,9.27
2022-10-01T21:01:00.783Z,9.24
2022-10-01T21:03:36.859Z,9.20
2022-10-01T21:06:07.362Z,9.13
2022-10-01T21:08:42.669Z,9.13
2022-10-01T21:11:17.080Z,9.15
2022-10-01T21:13:55.235Z,9.11
2022-10-01T21:16:48.508Z,9.08
2022-10-01T21:19:33.248Z,9.19
2022-10-01T21:22:14.015Z,9.27
2022-10-01T21:24:59.517Z,9.37
2022-10-01T21:27:48.248Z,9.31
2022-10-01T21:30:21.599Z,9.17
2022-10-01T21:33:05.533Z,9.15
2022-10-01T21:35:47.212Z,9.19
2022-10-01T21:38:28.683Z,9.27
2022-10-01T21:41:41.995Z,9.32
2022-10-01T21:44:34.230Z,9.35
2022-10-01T21:47:14.715Z,9.41
2022-10-01T21:49:47.567Z,9.44
2022-10-01T21:52:29.269Z,9.42
2022-10-01T21:55:23.441Z,9.58
2022-10-01T21:58:08.366Z,9.54
2022-10-01T22:00:36.320Z,9.45
2022-10-01T22:03:14.024Z,9.60
2022-10-01T22:05:50.709Z,9.59
2022-10-01T22:08:31.186Z,9.52
2022-10-01T22:11:03.895Z,9.54
2022-10-01T22:13:43.527Z,9.59
2022-10-01T22:16:15.026Z,9.56
2022-10-01T22:18:49.493Z,9.55
2022-10-01T22:21:24.080Z,9.49
2022-10-01T22:24:02.127Z,9.44
2022-10-01T22:26:32.944Z,9.62
2022-10-01T22:29:10.230Z,9.63
2022-10-01T22:31:40.577Z,9.64
2022-10-01T22:34:17.849Z,9.72
2022-10-01T22:36:51.484Z,9.78
2022-10-01T22:39:27.657Z,9.86
2022-10-01T22:42:02.485Z,9.96
2022-10-01T22:44:35.527Z,9.98
2022-10-01T22:47:25.882Z,9.86
2022-10-01T22:50:11.124Z,9.93
2022-10-01T22:52:49.533Z,9.88
2022-10-01T22:55:28.466Z,9.80
2022-10-01T22:58:13.004Z,9.74
2022-10-01T23:00:52.941Z,9.71
2022-10-01T23:03:33.012Z,9.63
2022-10-01T23:06:14.641Z,9.61
2022-10-01T23:08:51.535Z,9.67
2022-10-01T23:11:28.987Z,9.45
2022-10-01T23:14:05.343Z,9.41
2022-10-01T23:16:45.502Z,9.36
2022-10-01T23:19:30.637Z,9.43
2022-10-01T23:22:10.632Z,9.38
2022-10-01T23:24:53.497Z,9.29
2022-10-01T23:27:36.159Z,9.37
2022-10-01T23:30:11.769Z,9.27
2022-10-01T23:32:59.866Z,9.27
2022-10-01T23:35:42.695Z,9.41
2022-10-01T23:38:30.445Z,9.39
2022-10-01T23:41:05.800Z,9.50
2022-10-01T23:43:41.326Z,9.54
2022-10-01T23:46:16.175Z,9.49
2022-10-01T23:48:53.292Z,9.44
2022-10-01T23:51:26.581Z,9.52
2022-10-01T23:54:00.926Z,9.48
2022-10-01T23:56:50.364Z,9.52
2022-10-01T23:59:28.134Z,9.67
